Terminal Aerodrome Forecast
Issued by NWS Twin Cities, MN

Home | Current Version | Previous Version | Text Only | Print | Product List | Glossary On
Versions: 1 2 3 4 5 6 7 8 9 10 11 12 13 14 15 16 17 18 19 20 21 22
000
FTUS43 KMPX 220554 CCA
TAFSTC
TAF COR
KSTC 220554Z 2206/2306 00000KT P6SM OVC150
      TEMPO 2206/2209 1/4SM FG VV001
     FM220900 00000KT P6SM VCSH OVC070
     FM221900 34007KT P6SM VCSH OVC070
     FM222300 33007KT P6SM VCSH OVC015=

USA.gov is the U.S. government's official web portal to all federal, state and local government web resources and services.